Time;durP1;ratioP1;P1;durP2;ratioP2;P2;SDS_P1;SDS_P2;PMS_P1;PMS_P2;Temp;Humidity;BMP_temperature;BMP_pressure;BME280_temperature;BME280_humidity;BME280_pressure;Samples;Min_cycle;Max_cycle;Signal;HPM_P1;HPM_P2
2021/10/18 00:00:03;;;;;;;15.47;14.03;;;8.50;99.90;;;;;;5060295;28;20179;-67
2021/10/18 00:02:29;;;;;;;13.60;12.50;;;8.30;99.90;;;;;;5069278;28;20196;-68
2021/10/18 00:04:55;;;;;;;13.73;12.43;;;8.30;99.90;;;;;;5071099;28;20221;-68
2021/10/18 00:07:22;;;;;;;15.50;14.10;;;8.20;99.90;;;;;;5069230;28;20175;-67
2021/10/18 00:09:48;;;;;;;14.40;13.13;;;8.10;99.90;;;;;;5069660;28;20639;-67
2021/10/18 00:12:14;;;;;;;14.93;12.43;;;8.00;99.90;;;;;;5064160;28;20190;-68
2021/10/18 00:14:39;;;;;;;13.10;11.80;;;8.00;99.90;;;;;;5064577;28;20205;-68
2021/10/18 00:17:05;;;;;;;12.53;11.43;;;7.90;99.90;;;;;;5070114;28;20179;-68
2021/10/18 00:19:31;;;;;;;13.53;12.23;;;7.90;99.90;;;;;;5054158;28;20181;-68
2021/10/18 00:21:57;;;;;;;13.20;11.97;;;7.80;99.90;;;;;;5059453;28;20534;-68
2021/10/18 00:24:22;;;;;;;13.77;12.37;;;7.70;99.90;;;;;;5055347;28;20215;-68
2021/10/18 00:26:48;;;;;;;16.93;12.40;;;7.70;99.90;;;;;;5071962;28;20190;-67
2021/10/18 00:29:13;;;;;;;12.17;11.13;;;7.60;99.90;;;;;;5052825;28;20182;-68
2021/10/18 00:31:39;;;;;;;14.37;12.40;;;7.60;99.90;;;;;;5065877;28;20636;-67
2021/10/18 00:34:05;;;;;;;14.40;12.77;;;7.50;99.90;;;;;;5054311;28;20202;-67
2021/10/18 00:36:31;;;;;;;11.97;10.90;;;7.50;99.90;;;;;;5072462;28;20186;-68
2021/10/18 00:38:56;;;;;;;11.93;10.87;;;7.50;99.90;;;;;;5074279;28;20170;-66
2021/10/18 00:41:22;;;;;;;12.13;10.93;;;7.40;99.90;;;;;;5055221;28;20560;-68
2021/10/18 00:43:50;;;;;;;12.73;11.43;;;7.40;99.90;;;;;;5074206;28;20702;-68
2021/10/18 00:46:23;;;;;;;12.00;10.80;;;7.40;99.90;;;;;;5060705;28;20189;-68
2021/10/18 00:48:50;;;;;;;12.67;11.47;;;7.40;99.90;;;;;;5055207;28;20186;-67
2021/10/18 00:51:17;;;;;;;12.37;11.17;;;7.30;99.90;;;;;;5069213;28;20190;-68
2021/10/18 00:53:44;;;;;;;12.73;11.00;;;7.30;99.90;;;;;;5072307;28;20206;-68
2021/10/18 00:56:10;;;;;;;12.60;11.60;;;7.30;99.90;;;;;;5072282;28;20177;-68
2021/10/18 00:58:36;;;;;;;12.93;11.63;;;7.20;99.90;;;;;;5066632;28;20183;-68
2021/10/18 01:01:02;;;;;;;12.47;11.23;;;7.20;99.90;;;;;;5053889;28;20635;-68
2021/10/18 01:03:28;;;;;;;12.83;11.73;;;7.20;99.90;;;;;;5072295;28;20221;-68
2021/10/18 01:05:54;;;;;;;15.50;12.40;;;7.20;99.90;;;;;;5073975;28;20607;-68
2021/10/18 01:08:19;;;;;;;12.57;11.47;;;7.20;99.90;;;;;;5055673;28;20178;-67
2021/10/18 01:10:45;;;;;;;12.97;11.77;;;7.20;99.90;;;;;;5052866;28;20239;-67
2021/10/18 01:13:11;;;;;;;13.87;12.37;;;7.20;99.90;;;;;;5072177;28;20179;-68
2021/10/18 01:15:37;;;;;;;12.73;11.53;;;7.20;99.90;;;;;;5071985;28;20602;-68
2021/10/18 01:18:03;;;;;;;13.77;12.53;;;7.20;99.90;;;;;;5057556;28;20640;-68
2021/10/18 01:20:31;;;;;;;12.80;11.60;;;7.10;99.90;;;;;;5058340;28;20178;-67
2021/10/18 01:22:57;;;;;;;12.80;11.53;;;7.10;99.90;;;;;;5073510;28;20233;-68
2021/10/18 01:25:23;;;;;;;12.47;11.37;;;7.10;99.90;;;;;;5068781;28;20564;-67
2021/10/18 01:27:49;;;;;;;15.23;12.27;;;7.00;99.90;;;;;;5068089;28;20186;-67
2021/10/18 01:30:15;;;;;;;13.20;11.87;;;7.00;99.90;;;;;;5069053;28;20742;-67
2021/10/18 01:32:42;;;;;;;14.30;13.00;;;7.00;99.90;;;;;;5065691;28;20208;-67
2021/10/18 01:35:09;;;;;;;13.63;12.37;;;6.90;99.90;;;;;;5072013;28;20597;-67
2021/10/18 01:37:34;;;;;;;13.30;12.00;;;6.90;99.90;;;;;;5063735;28;20550;-68
2021/10/18 01:40:00;;;;;;;14.90;13.40;;;6.80;99.90;;;;;;5071251;28;20182;-67
2021/10/18 01:42:26;;;;;;;13.67;12.30;;;6.80;99.90;;;;;;5072977;28;20185;-68
2021/10/18 01:44:51;;;;;;;13.97;12.57;;;6.80;99.90;;;;;;5071534;28;20750;-68
2021/10/18 01:47:17;;;;;;;13.87;12.67;;;6.70;99.90;;;;;;5056189;28;20248;-68
2021/10/18 01:49:43;;;;;;;13.40;12.03;;;6.70;99.90;;;;;;5071459;28;20181;-68
2021/10/18 01:52:09;;;;;;;13.67;12.37;;;6.70;99.90;;;;;;5061171;28;20174;-67
2021/10/18 01:54:34;;;;;;;12.90;11.67;;;6.60;99.90;;;;;;5067253;28;20206;-67
2021/10/18 01:57:00;;;;;;;14.83;11.80;;;6.60;99.90;;;;;;5051603;28;20313;-68
2021/10/18 01:59:26;;;;;;;12.90;11.67;;;6.60;99.90;;;;;;5058495;28;20673;-68
2021/10/18 02:01:52;;;;;;;12.33;11.13;;;6.60;99.90;;;;;;5067416;28;20204;-68
2021/10/18 02:04:17;;;;;;;12.73;11.63;;;6.60;99.90;;;;;;5072331;28;20201;-67
2021/10/18 02:06:43;;;;;;;12.80;11.57;;;6.50;99.90;;;;;;5069044;28;20174;-67
2021/10/18 02:09:09;;;;;;;12.60;11.30;;;6.50;99.90;;;;;;5050872;28;20224;-66
2021/10/18 02:11:34;;;;;;;13.07;11.73;;;6.50;99.90;;;;;;5053862;28;20201;-68
2021/10/18 02:14:00;;;;;;;13.47;12.07;;;6.60;99.90;;;;;;5072405;28;20194;-68
2021/10/18 02:16:25;;;;;;;13.83;11.80;;;6.60;99.90;;;;;;5068474;28;20186;-68
2021/10/18 02:18:51;;;;;;;13.60;12.27;;;6.50;99.90;;;;;;5054795;28;20183;-67
2021/10/18 02:21:17;;;;;;;12.47;11.40;;;6.50;99.90;;;;;;5056971;28;20194;-67
2021/10/18 02:23:42;;;;;;;12.87;11.67;;;6.50;99.90;;;;;;5057003;28;20225;-68
2021/10/18 02:26:08;;;;;;;13.37;12.03;;;6.40;99.90;;;;;;5056675;28;20653;-68
2021/10/18 02:28:34;;;;;;;13.00;11.80;;;6.50;99.90;;;;;;5056785;28;20201;-68
2021/10/18 02:30:59;;;;;;;11.57;10.67;;;6.40;99.90;;;;;;5051734;28;20237;-67
2021/10/18 02:33:25;;;;;;;12.53;11.33;;;6.40;99.90;;;;;;5052024;28;20661;-68
2021/10/18 02:35:51;;;;;;;13.20;12.00;;;6.40;99.90;;;;;;5071191;28;20619;-67
2021/10/18 02:38:16;;;;;;;13.03;11.93;;;6.40;99.90;;;;;;5052506;28;20252;-68
2021/10/18 02:40:42;;;;;;;15.13;11.57;;;6.40;99.90;;;;;;5051919;28;20183;-67
2021/10/18 02:43:08;;;;;;;12.77;11.57;;;6.40;99.90;;;;;;5067303;28;20281;-67
2021/10/18 02:45:33;;;;;;;13.23;12.13;;;6.40;99.90;;;;;;5071871;28;20601;-66
2021/10/18 02:47:59;;;;;;;13.20;11.80;;;6.40;99.90;;;;;;5066571;28;20190;-67
2021/10/18 02:50:25;;;;;;;13.13;11.90;;;6.40;99.90;;;;;;5071442;28;20256;-67
2021/10/18 02:52:50;;;;;;;14.10;12.40;;;6.40;99.90;;;;;;5065766;28;20182;-68
2021/10/18 02:55:16;;;;;;;12.90;11.67;;;6.40;99.90;;;;;;5071549;28;20625;-67
2021/10/18 02:57:42;;;;;;;11.87;10.87;;;6.30;99.90;;;;;;5057324;28;20186;-67
2021/10/18 03:00:08;;;;;;;12.90;11.77;;;6.30;99.90;;;;;;5051339;28;20175;-67
2021/10/18 03:02:34;;;;;;;14.00;12.73;;;6.30;99.90;;;;;;5055818;28;20665;-68
2021/10/18 03:04:59;;;;;;;13.23;12.13;;;6.30;99.90;;;;;;5051784;28;20285;-67
2021/10/18 03:07:25;;;;;;;19.60;13.63;;;6.30;99.90;;;;;;5068877;28;20178;-67
2021/10/18 03:09:50;;;;;;;13.23;12.00;;;6.30;99.90;;;;;;5071337;28;20158;-67
2021/10/18 03:12:16;;;;;;;14.60;13.10;;;6.30;99.90;;;;;;5058761;28;20224;-68
2021/10/18 03:14:41;;;;;;;13.90;12.57;;;6.30;99.90;;;;;;5071624;28;20197;-68
2021/10/18 03:17:07;;;;;;;13.27;11.97;;;6.30;99.90;;;;;;5057159;28;20179;-67
2021/10/18 03:19:33;;;;;;;16.67;12.67;;;6.30;99.90;;;;;;5064499;28;20170;-67
2021/10/18 03:21:58;;;;;;;14.13;12.77;;;6.40;99.90;;;;;;5070208;28;20224;-68
2021/10/18 03:24:24;;;;;;;14.23;12.83;;;6.30;99.90;;;;;;5066093;28;20292;-68
2021/10/18 03:26:49;;;;;;;13.37;12.17;;;6.30;99.90;;;;;;5052955;28;20202;-68
2021/10/18 03:29:15;;;;;;;13.50;12.27;;;6.30;99.90;;;;;;5069833;28;20174;-67
2021/10/18 03:31:41;;;;;;;14.17;12.53;;;6.30;99.90;;;;;;5069942;28;20185;-68
2021/10/18 03:34:07;;;;;;;12.90;11.70;;;6.30;99.90;;;;;;5060021;28;20671;-68
2021/10/18 03:36:32;;;;;;;13.10;11.90;;;6.30;99.90;;;;;;5071468;28;20202;-68
2021/10/18 03:38:58;;;;;;;14.87;12.00;;;6.20;99.90;;;;;;5069501;28;20178;-68
2021/10/18 03:41:23;;;;;;;13.13;11.93;;;6.20;99.90;;;;;;5051063;28;20654;-67
2021/10/18 03:43:49;;;;;;;12.90;11.80;;;6.20;99.90;;;;;;5049958;28;20224;-66
2021/10/18 03:46:15;;;;;;;13.77;12.43;;;6.20;99.90;;;;;;5069709;28;20178;-68
2021/10/18 03:48:40;;;;;;;13.10;11.87;;;6.20;99.90;;;;;;5066578;28;20177;-67
2021/10/18 03:51:06;;;;;;;13.57;12.20;;;6.10;99.90;;;;;;5072779;28;20173;-67
2021/10/18 03:53:31;;;;;;;13.20;11.93;;;6.10;99.90;;;;;;5073563;28;20197;-66
2021/10/18 03:55:57;;;;;;;12.60;11.40;;;6.10;99.90;;;;;;5073951;28;20210;-67
2021/10/18 03:58:23;;;;;;;12.97;11.67;;;6.00;99.90;;;;;;5055167;28;20179;-68
2021/10/18 04:00:48;;;;;;;13.13;11.83;;;6.00;99.90;;;;;;5055909;28;20541;-67
2021/10/18 04:03:14;;;;;;;14.53;12.33;;;5.90;99.90;;;;;;5054560;28;20199;-68
2021/10/18 04:05:39;;;;;;;12.83;11.27;;;5.90;99.90;;;;;;5058378;28;20174;-67
2021/10/18 04:08:05;;;;;;;15.67;11.73;;;5.90;99.90;;;;;;5057432;28;20175;-67
2021/10/18 04:10:32;;;;;;;13.37;12.07;;;5.90;99.90;;;;;;5055488;28;20628;-67
2021/10/18 04:13:00;;;;;;;12.37;11.30;;;5.90;99.90;;;;;;5055229;28;20202;-67
2021/10/18 04:15:25;;;;;;;13.87;12.57;;;5.90;99.90;;;;;;5054626;28;20636;-67
2021/10/18 04:17:51;;;;;;;13.10;11.77;;;5.90;99.90;;;;;;5066072;28;20254;-67
2021/10/18 04:20:17;;;;;;;12.73;11.63;;;5.80;99.90;;;;;;5073871;28;20178;-67
2021/10/18 04:22:46;;;;;;;13.27;12.17;;;5.80;99.90;;;;;;5058479;28;20178;-67
2021/10/18 04:25:13;;;;;;;14.27;12.87;;;5.90;99.90;;;;;;5054472;28;20274;-67
2021/10/18 04:27:39;;;;;;;13.33;12.13;;;5.90;99.90;;;;;;5064880;28;20202;-67
2021/10/18 04:30:05;;;;;;;13.13;11.83;;;5.90;99.90;;;;;;5056278;28;20796;-67
2021/10/18 04:32:30;;;;;;;13.60;12.30;;;5.90;99.90;;;;;;5069560;28;20649;-67
2021/10/18 04:34:56;;;;;;;14.70;11.83;;;5.90;99.90;;;;;;5074400;28;20269;-67
2021/10/18 04:37:21;;;;;;;13.00;11.80;;;5.90;99.90;;;;;;5058926;28;20269;-67
2021/10/18 04:39:47;;;;;;;13.83;12.43;;;5.80;99.90;;;;;;5051686;28;20272;-67
2021/10/18 04:42:13;;;;;;;13.90;12.40;;;5.80;99.90;;;;;;5054813;28;20178;-67
2021/10/18 04:44:38;;;;;;;13.70;12.30;;;5.80;99.90;;;;;;5059281;28;20202;-67
2021/10/18 04:47:05;;;;;;;12.77;11.57;;;5.80;99.90;;;;;;5065309;28;20198;-67
2021/10/18 04:49:30;;;;;;;12.43;11.13;;;5.80;99.90;;;;;;5064727;28;20186;-67
2021/10/18 04:51:56;;;;;;;12.57;11.30;;;5.80;99.90;;;;;;5072424;28;20182;-67
2021/10/18 04:54:22;;;;;;;13.70;12.40;;;5.80;99.90;;;;;;5073946;28;20780;-67
2021/10/18 04:56:47;;;;;;;13.30;12.10;;;5.80;99.90;;;;;;5068575;28;20548;-67
2021/10/18 04:59:13;;;;;;;13.93;11.77;;;5.70;99.90;;;;;;5067803;28;20184;-67
2021/10/18 05:01:38;;;;;;;15.63;12.47;;;5.70;99.90;;;;;;5061417;28;20273;-67
2021/10/18 05:04:04;;;;;;;13.70;12.47;;;5.70;99.90;;;;;;5053374;28;20210;-67
2021/10/18 05:06:31;;;;;;;12.83;11.73;;;5.80;99.90;;;;;;5053950;28;20202;-67
2021/10/18 05:08:56;;;;;;;13.30;11.93;;;5.70;99.90;;;;;;5062664;28;20579;-67
2021/10/18 05:11:22;;;;;;;14.93;11.67;;;5.70;99.90;;;;;;5070373;28;20216;-67
2021/10/18 05:13:47;;;;;;;13.67;11.87;;;5.70;99.90;;;;;;5060406;28;20294;-67
2021/10/18 05:16:13;;;;;;;13.33;11.83;;;5.70;99.90;;;;;;5058662;28;20271;-67
2021/10/18 05:18:39;;;;;;;13.57;12.20;;;5.70;99.90;;;;;;5064332;28;20179;-67
2021/10/18 05:21:06;;;;;;;14.13;12.27;;;5.70;99.90;;;;;;5051850;28;20257;-67
2021/10/18 05:23:32;;;;;;;12.93;11.83;;;5.80;99.90;;;;;;5072624;28;20233;-67
2021/10/18 05:25:58;;;;;;;13.93;12.60;;;5.80;99.90;;;;;;5073551;28;20268;-67
2021/10/18 05:28:24;;;;;;;16.93;13.13;;;5.80;99.90;;;;;;5054638;28;20278;-67
2021/10/18 05:30:49;;;;;;;14.77;12.83;;;5.80;99.90;;;;;;5066179;28;20186;-67
2021/10/18 05:33:15;;;;;;;13.60;12.23;;;5.80;99.90;;;;;;5059738;28;20214;-67
2021/10/18 05:35:41;;;;;;;14.17;12.77;;;5.80;99.90;;;;;;5051902;28;20225;-67
2021/10/18 05:38:06;;;;;;;14.87;13.47;;;5.80;99.90;;;;;;5064148;28;20224;-67
2021/10/18 05:40:32;;;;;;;13.87;12.60;;;5.80;99.90;;;;;;5071035;28;20285;-67
2021/10/18 05:42:57;;;;;;;14.90;13.30;;;5.80;99.90;;;;;;5051908;28;20179;-67
2021/10/18 05:45:23;;;;;;;14.33;12.83;;;5.70;99.90;;;;;;5051680;28;20294;-67
2021/10/18 05:48:04;;;;;;;13.37;12.07;;;5.70;99.90;;;;;;5069048;28;20558;-67
2021/10/18 05:50:40;;;;;;;13.60;12.23;;;5.70;99.90;;;;;;5070461;28;20268;-67
2021/10/18 05:53:06;;;;;;;13.43;12.00;;;5.70;99.90;;;;;;5072906;28;20212;-67
2021/10/18 05:55:32;;;;;;;15.33;13.83;;;5.70;99.90;;;;;;5055465;28;20198;-67
2021/10/18 05:57:59;;;;;;;14.40;12.90;;;5.60;99.90;;;;;;5072810;28;20174;-67
2021/10/18 06:00:26;;;;;;;13.93;12.10;;;5.60;99.90;;;;;;5056203;28;20561;-67
2021/10/18 06:02:53;;;;;;;18.83;12.57;;;5.60;99.90;;;;;;5072768;28;20185;-67
2021/10/18 06:05:20;;;;;;;14.00;12.70;;;5.60;99.90;;;;;;5061440;28;20242;-67
2021/10/18 06:07:45;;;;;;;14.17;12.70;;;5.60;99.90;;;;;;5065724;28;20651;-67
2021/10/18 06:10:13;;;;;;;14.53;13.10;;;5.60;99.90;;;;;;5067905;28;20185;-67
2021/10/18 06:12:40;;;;;;;15.23;12.97;;;5.60;99.90;;;;;;5070944;28;20235;-67
2021/10/18 06:15:07;;;;;;;13.60;12.40;;;5.60;99.90;;;;;;5070017;28;20225;-67
2021/10/18 06:17:33;;;;;;;14.90;13.33;;;5.60;99.90;;;;;;5059369;28;20632;-67
2021/10/18 06:19:59;;;;;;;15.20;12.97;;;5.70;99.90;;;;;;5065626;28;20269;-67
2021/10/18 06:22:24;;;;;;;13.40;12.23;;;5.70;99.90;;;;;;5064379;28;20532;-67
2021/10/18 06:24:50;;;;;;;14.73;13.33;;;5.80;99.90;;;;;;5070594;28;20197;-67
2021/10/18 06:27:17;;;;;;;14.23;12.83;;;5.80;99.90;;;;;;5059391;28;20232;-67
2021/10/18 06:29:43;;;;;;;14.23;12.83;;;5.80;99.90;;;;;;5069552;28;20218;-67
2021/10/18 06:32:08;;;;;;;15.17;13.57;;;5.90;99.90;;;;;;5060379;28;20269;-67
2021/10/18 06:34:34;;;;;;;14.40;12.97;;;5.90;99.90;;;;;;5063156;28;20213;-67
2021/10/18 06:37:00;;;;;;;14.70;12.93;;;5.90;99.90;;;;;;5068225;28;20179;-67
2021/10/18 06:39:26;;;;;;;17.43;13.63;;;6.00;99.90;;;;;;5050172;28;20174;-67
2021/10/18 06:41:51;;;;;;;15.73;14.07;;;6.10;99.90;;;;;;5051158;28;20201;-67
2021/10/18 06:44:17;;;;;;;15.30;13.90;;;6.20;99.90;;;;;;5071666;28;20247;-67
2021/10/18 06:46:42;;;;;;;16.27;14.63;;;6.30;99.90;;;;;;5065833;28;20564;-67
2021/10/18 06:49:08;;;;;;;18.87;14.93;;;6.30;99.90;;;;;;5058271;28;20194;-67
2021/10/18 06:51:36;;;;;;;16.07;14.17;;;6.40;99.90;;;;;;5052440;28;20185;-67
2021/10/18 06:54:04;;;;;;;15.13;13.83;;;6.50;99.90;;;;;;5050561;28;20206;-67
2021/10/18 06:56:29;;;;;;;16.47;13.37;;;6.50;99.90;;;;;;5052165;28;20174;-67
2021/10/18 06:58:55;;;;;;;16.10;14.53;;;6.60;99.90;;;;;;5071522;28;20224;-67
2021/10/18 07:01:20;;;;;;;15.57;13.97;;;6.70;99.90;;;;;;5061036;28;20183;-67
2021/10/18 07:03:46;;;;;;;16.13;13.90;;;6.80;99.90;;;;;;5052321;28;20217;-67
2021/10/18 07:06:12;;;;;;;19.00;15.67;;;6.90;99.90;;;;;;5049294;28;20654;-67
2021/10/18 07:08:37;;;;;;;21.67;14.93;;;7.10;99.90;;;;;;5049858;28;20190;-67
2021/10/18 07:11:03;;;;;;;18.90;16.27;;;7.50;99.90;;;;;;5056571;28;20550;-67
2021/10/18 07:13:28;;;;;;;17.57;15.77;;;7.70;99.90;;;;;;5069602;28;20209;-67
2021/10/18 07:15:54;;;;;;;17.13;15.33;;;7.90;99.90;;;;;;5051480;28;20636;-67
2021/10/18 07:18:20;;;;;;;17.13;14.50;;;8.10;99.90;;;;;;5057628;28;20242;-67
2021/10/18 07:20:45;;;;;;;16.37;14.70;;;8.30;99.90;;;;;;5068743;28;20174;-67
2021/10/18 07:23:12;;;;;;;16.30;14.03;;;8.50;99.90;;;;;;5066147;28;20179;-67
2021/10/18 07:25:41;;;;;;;17.10;15.57;;;8.70;99.90;;;;;;5051371;28;20687;-67
2021/10/18 07:28:07;;;;;;;15.63;13.83;;;8.90;99.90;;;;;;5061586;28;20182;-67
2021/10/18 07:30:34;;;;;;;14.67;13.17;;;9.20;99.90;;;;;;5067245;28;20190;-67
2021/10/18 07:33:00;;;;;;;12.73;11.53;;;9.50;99.90;;;;;;5055781;28;20202;-67
2021/10/18 07:35:34;;;;;;;13.20;12.00;;;9.80;99.90;;;;;;5049657;28;20604;-67
2021/10/18 07:38:00;;;;;;;11.37;10.20;;;9.90;99.90;;;;;;5062307;28;20558;-67
2021/10/18 07:40:28;;;;;;;11.47;10.50;;;10.00;99.90;;;;;;5050514;28;20222;-67
2021/10/18 07:42:54;;;;;;;11.37;10.40;;;10.10;99.90;;;;;;5051200;28;20186;-67
2021/10/18 07:45:20;;;;;;;10.83;10.00;;;10.30;99.90;;;;;;5057994;28;20202;-67
2021/10/18 07:47:46;;;;;;;11.33;10.43;;;10.40;99.90;;;;;;5058832;28;20262;-67
2021/10/18 07:50:13;;;;;;;9.93;9.03;;;10.50;99.90;;;;;;5064326;28;20268;-67
2021/10/18 07:52:40;;;;;;;11.93;10.73;;;10.50;99.90;;;;;;5065026;28;20664;-67
2021/10/18 07:55:12;;;;;;;11.63;9.93;;;10.70;99.90;;;;;;5049684;28;20195;-67
2021/10/18 07:57:39;;;;;;;11.90;10.67;;;10.80;99.90;;;;;;5054651;28;20202;-67
2021/10/18 08:00:06;;;;;;;11.23;10.13;;;10.90;99.90;;;;;;5049093;28;20266;-67
2021/10/18 08:02:31;;;;;;;11.43;10.27;;;11.00;99.90;;;;;;5053193;28;20210;-67
2021/10/18 08:04:57;;;;;;;12.30;9.97;;;11.00;99.90;;;;;;5070558;28;20709;-67
2021/10/18 08:07:27;;;;;;;14.43;10.07;;;11.10;99.90;;;;;;5064064;28;20209;-67
2021/10/18 08:09:52;;;;;;;11.67;10.40;;;11.30;99.90;;;;;;5061730;28;20228;-67
2021/10/18 08:12:18;;;;;;;10.77;9.87;;;11.50;99.90;;;;;;5050732;28;20183;-67
2021/10/18 08:14:44;;;;;;;10.93;10.03;;;11.80;99.90;;;;;;5050802;28;20834;-67
2021/10/18 08:17:09;;;;;;;11.50;10.30;;;12.00;99.90;;;;;;5051027;28;20262;-67
2021/10/18 08:19:35;;;;;;;9.57;8.73;;;12.20;99.90;;;;;;5050475;28;20163;-67
2021/10/18 08:22:00;;;;;;;10.10;9.30;;;12.40;99.90;;;;;;5049987;28;20537;-67
2021/10/18 08:24:26;;;;;;;10.80;9.80;;;12.70;99.90;;;;;;5050695;28;20304;-67
2021/10/18 08:26:52;;;;;;;11.07;9.90;;;12.90;99.90;;;;;;5049623;28;20182;-67
2021/10/18 08:29:17;;;;;;;10.57;9.67;;;13.00;99.90;;;;;;5050670;28;20220;-67
2021/10/18 08:31:43;;;;;;;10.63;9.60;;;13.10;99.90;;;;;;5049411;28;20277;-67
2021/10/18 08:34:08;;;;;;;10.53;9.53;;;13.20;99.90;;;;;;5050266;28;20253;-67
2021/10/18 08:36:37;;;;;;;10.37;9.47;;;13.40;99.90;;;;;;5052901;28;20175;-67
2021/10/18 08:41:49;;;;;;;9.77;8.97;;;14.10;99.90;;;;;;5054107;28;20174;-67
2021/10/18 08:44:15;;;;;;;9.83;8.73;;;14.40;99.90;;;;;;5052626;28;20268;-67
2021/10/18 08:46:48;;;;;;;8.90;8.10;;;14.30;99.90;;;;;;5054214;28;20265;-67
2021/10/18 08:49:16;;;;;;;10.20;9.30;;;14.30;99.90;;;;;;5072068;28;20201;-67
2021/10/18 08:51:41;;;;;;;10.60;9.60;;;14.10;99.90;;;;;;5074120;28;20181;-67
2021/10/18 08:54:09;;;;;;;12.37;11.10;;;14.00;99.90;;;;;;5073713;28;20214;-67
2021/10/18 08:56:35;;;;;;;10.87;9.77;;;13.90;99.90;;;;;;5072623;28;20178;-67
2021/10/18 08:59:01;;;;;;;10.40;9.47;;;13.90;99.90;;;;;;5073695;28;20631;-67
2021/10/18 09:01:43;;;;;;;11.57;10.47;;;13.90;99.90;;;;;;5073632;28;20174;-67
2021/10/18 09:04:12;;;;;;;10.27;9.37;;;14.10;99.90;;;;;;5073509;28;20205;-67
2021/10/18 09:06:44;;;;;;;10.03;9.20;;;14.30;99.90;;;;;;5056612;28;20179;-67
2021/10/18 09:09:10;;;;;;;10.80;9.70;;;14.40;99.90;;;;;;5052155;28;20182;-67
2021/10/18 09:11:35;;;;;;;10.77;9.77;;;14.50;99.90;;;;;;5052392;28;20185;-67
2021/10/18 09:14:02;;;;;;;10.50;9.20;;;14.60;99.90;;;;;;5062023;28;20210;-67
2021/10/18 09:16:35;;;;;;;10.73;9.73;;;14.60;99.90;;;;;;5056127;28;20234;-67
2021/10/18 09:19:09;;;;;;;9.87;9.00;;;14.60;99.90;;;;;;5056598;28;20178;-67
2021/10/18 09:21:39;;;;;;;10.10;9.10;;;14.70;99.90;;;;;;5072542;28;20564;-67
2021/10/18 09:24:06;;;;;;;10.60;9.53;;;14.70;99.90;;;;;;5055984;28;20209;-67
2021/10/18 09:26:33;;;;;;;11.10;10.10;;;14.90;99.90;;;;;;5053292;28;20262;-67
2021/10/18 09:29:05;;;;;;;9.37;8.50;;;15.10;99.90;;;;;;5052818;28;20718;-67
2021/10/18 09:31:31;;;;;;;9.93;8.93;;;15.20;99.90;;;;;;5051747;28;20178;-67
2021/10/18 09:34:04;;;;;;;11.03;10.10;;;15.50;99.90;;;;;;5052602;28;20214;-67
2021/10/18 09:36:32;;;;;;;9.77;8.20;;;15.70;99.90;;;;;;5053349;28;20175;-67
2021/10/18 09:39:24;;;;;;;11.83;9.67;;;15.90;99.90;;;;;;5054212;28;20175;-67
2021/10/18 09:41:59;;;;;;;10.27;9.27;;;16.20;99.90;;;;;;5053041;28;20225;-67
2021/10/18 09:44:56;;;;;;;9.17;8.27;;;16.10;99.90;;;;;;5053766;28;20679;-67
2021/10/18 10:53:13;;;;;;;10.73;9.73;;;16.70;99.90;;;;;;5046445;28;20205;-62
2021/10/18 10:55:39;;;;;;;9.80;9.00;;;16.60;99.90;;;;;;5051844;28;20199;-62
2021/10/18 10:58:34;;;;;;;10.57;9.47;;;16.30;99.90;;;;;;5051259;28;20159;-62
2021/10/18 11:01:01;;;;;;;10.07;9.07;;;16.20;99.90;;;;;;5051553;28;20190;-62
2021/10/18 11:03:36;;;;;;;11.80;10.40;;;16.10;99.90;;;;;;5051127;28;20555;-62
2021/10/18 11:06:03;;;;;;;9.60;8.80;;;16.10;99.90;;;;;;5051942;28;20213;-62
2021/10/18 11:08:43;;;;;;;10.17;9.27;;;16.60;99.90;;;;;;5051557;28;20186;-62
2021/10/18 11:11:12;;;;;;;8.83;8.03;;;17.40;99.90;;;;;;5051071;28;20261;-62
2021/10/18 11:13:55;;;;;;;8.87;8.13;;;18.20;99.90;;;;;;5051539;28;20198;-62
2021/10/18 11:16:31;;;;;;;9.13;8.33;;;19.00;99.90;;;;;;5051305;28;20285;-62
2021/10/18 11:19:00;;;;;;;9.90;8.90;;;19.50;99.90;;;;;;5051545;28;20656;-64
2021/10/18 11:21:34;;;;;;;8.90;8.10;;;19.30;99.90;;;;;;5051320;28;20176;-63
2021/10/18 11:24:10;;;;;;;8.70;8.00;;;19.20;99.90;;;;;;5051527;28;20254;-63
2021/10/18 11:26:38;;;;;;;9.00;8.10;;;18.80;99.90;;;;;;5051477;28;20232;-62
2021/10/18 11:29:06;;;;;;;10.13;8.33;;;18.70;99.90;;;;;;5051233;28;20262;-62
2021/10/18 11:31:43;;;;;;;10.03;9.03;;;18.60;99.90;;;;;;5051318;28;20179;-62
2021/10/18 11:34:10;;;;;;;8.83;8.03;;;18.40;99.90;;;;;;5051112;28;20679;-62
2021/10/18 11:36:38;;;;;;;9.33;8.53;;;18.20;99.90;;;;;;5051466;28;20174;-62
2021/10/18 11:39:11;;;;;;;10.20;9.27;;;18.20;99.90;;;;;;5051142;28;20163;-62
2021/10/18 11:41:58;;;;;;;9.33;8.43;;;18.20;99.90;;;;;;5051173;28;20170;-62
2021/10/18 11:44:38;;;;;;;9.93;8.93;;;18.40;99.90;;;;;;5051207;28;20186;-62
2021/10/18 11:47:05;;;;;;;10.83;9.73;;;18.60;99.90;;;;;;5051512;28;20175;-62
2021/10/18 11:49:30;;;;;;;12.10;8.77;;;18.50;99.90;;;;;;5051258;28;20171;-62
2021/10/18 11:51:56;;;;;;;9.20;8.20;;;18.60;99.90;;;;;;5051342;28;20747;-63
2021/10/18 11:54:22;;;;;;;9.20;8.30;;;18.50;99.90;;;;;;5051180;28;20211;-62
2021/10/18 11:56:54;;;;;;;10.20;8.90;;;18.50;99.90;;;;;;5051381;28;20627;-62
2021/10/18 11:59:21;;;;;;;10.53;9.57;;;18.30;99.90;;;;;;5050805;28;20660;-62
2021/10/18 12:01:46;;;;;;;10.10;8.73;;;18.40;99.90;;;;;;5051248;28;20163;-62
2021/10/18 12:04:12;;;;;;;10.07;9.07;;;18.50;99.90;;;;;;5049735;28;20709;-62
2021/10/18 12:06:47;;;;;;;10.33;9.47;;;18.70;99.90;;;;;;5051207;28;20178;-62
2021/10/18 12:09:26;;;;;;;12.77;10.20;;;18.70;99.90;;;;;;5050579;28;20209;-62
2021/10/18 12:11:53;;;;;;;10.03;9.03;;;18.70;99.90;;;;;;5054016;28;20312;-62
2021/10/18 12:14:19;;;;;;;9.87;8.87;;;18.70;99.90;;;;;;5054399;28;20214;-63
2021/10/18 12:16:45;;;;;;;9.03;8.23;;;18.40;99.90;;;;;;5054794;28;20205;-62
2021/10/18 12:19:11;;;;;;;9.43;8.50;;;18.50;99.90;;;;;;5054566;28;20682;-62
2021/10/18 12:21:40;;;;;;;10.67;9.13;;;18.60;99.90;;;;;;5054696;28;20178;-63
2021/10/18 12:24:14;;;;;;;16.67;10.27;;;18.70;99.90;;;;;;5054434;28;20275;-62
2021/10/18 12:26:47;;;;;;;10.50;9.43;;;18.90;99.90;;;;;;5054602;28;20182;-62
2021/10/18 12:29:17;;;;;;;9.17;8.37;;;19.10;99.90;;;;;;5054505;28;20202;-62
2021/10/18 12:31:46;;;;;;;9.93;8.80;;;19.30;99.90;;;;;;5053549;28;20705;-67
2021/10/18 12:34:12;;;;;;;9.63;8.70;;;19.30;99.90;;;;;;5054115;28;20325;-62
2021/10/18 12:36:51;;;;;;;9.40;8.27;;;19.20;99.90;;;;;;5054554;28;20262;-63
2021/10/18 12:39:41;;;;;;;9.23;8.43;;;19.20;99.90;;;;;;5054279;28;20202;-63
2021/10/18 12:42:34;;;;;;;10.17;9.17;;;19.10;99.90;;;;;;5045463;28;20236;-62
2021/10/18 12:45:19;;;;;;;9.60;8.60;;;19.00;99.90;;;;;;5054312;28;20206;-62
2021/10/18 12:47:50;;;;;;;9.50;8.60;;;18.50;99.90;;;;;;5054475;28;20179;-62
2021/10/18 12:50:21;;;;;;;10.03;9.03;;;18.20;99.90;;;;;;5053819;28;20534;-62
2021/10/18 12:52:54;;;;;;;9.57;8.77;;;18.00;99.90;;;;;;5054530;28;20170;-62
2021/10/18 12:55:30;;;;;;;10.43;8.70;;;17.70;99.90;;;;;;5053794;28;20203;-63
2021/10/18 12:57:58;;;;;;;10.97;9.63;;;17.40;99.90;;;;;;5054069;28;20162;-63
2021/10/18 13:00:38;;;;;;;12.23;9.23;;;17.10;99.90;;;;;;5053734;28;20174;-62
2021/10/18 13:03:06;;;;;;;10.17;9.27;;;16.90;99.90;;;;;;5053801;28;20262;-62
2021/10/18 13:05:47;;;;;;;10.37;9.37;;;16.90;99.90;;;;;;5053748;28;20293;-62
2021/10/18 13:08:15;;;;;;;10.23;9.17;;;17.00;99.90;;;;;;5053899;28;20198;-62
2021/10/18 13:10:41;;;;;;;9.97;9.07;;;17.10;99.90;;;;;;5053747;28;20178;-62
2021/10/18 13:13:12;;;;;;;10.10;9.23;;;17.10;99.90;;;;;;5053892;28;20202;-62
2021/10/18 13:15:39;;;;;;;10.07;9.17;;;17.00;99.90;;;;;;5053800;28;20274;-63
2021/10/18 13:18:11;;;;;;;10.70;9.77;;;16.80;99.90;;;;;;5053855;28;20171;-63
2021/10/18 13:20:37;;;;;;;10.43;9.43;;;16.90;99.90;;;;;;5053429;28;20636;-63
2021/10/18 13:23:07;;;;;;;10.00;9.10;;;16.90;99.90;;;;;;5053123;28;20259;-62
2021/10/18 13:25:36;;;;;;;9.90;8.90;;;16.80;99.90;;;;;;5053818;28;20233;-62
2021/10/18 13:28:03;;;;;;;11.40;9.67;;;16.70;99.90;;;;;;5053472;28;20220;-62
2021/10/18 13:30:30;;;;;;;10.70;9.60;;;16.80;99.90;;;;;;5053133;28;20173;-62
2021/10/18 13:32:59;;;;;;;9.43;8.63;;;16.80;99.90;;;;;;5053191;28;20190;-63
2021/10/18 13:35:26;;;;;;;9.90;8.90;;;16.80;99.90;;;;;;5051962;28;20682;-63
2021/10/18 13:37:52;;;;;;;9.93;9.07;;;16.90;99.90;;;;;;5053087;28;20202;-62
2021/10/18 13:40:20;;;;;;;11.73;8.67;;;16.90;99.90;;;;;;5052788;28;20182;-62
2021/10/18 13:42:46;;;;;;;9.87;8.97;;;16.90;99.90;;;;;;5053315;28;20170;-62
2021/10/18 13:45:15;;;;;;;10.03;8.97;;;16.70;99.90;;;;;;5052413;28;20195;-63
2021/10/18 13:47:41;;;;;;;11.57;9.37;;;16.70;99.90;;;;;;5053078;28;20182;-62